PWSweather.com
Personal Weather Stations
Station Observations
NANKRWX
Nanaimo, BC V9R 6W6

Nanaimo, BC V9R 6W6

Lat: 49.168, Lon: -124.036

Elevation: 637

Station Type: Davis Vantage Pro 2

http://weathercat.ca

Latest ConditionsUpdated 3:50:07 PM PDT Wednesday, Oct 16, 2019
Currently Today's Max Today's Min Today's Average
Temperature 47.9°F8.8°C 51.3°F10.7°C 47.7°F8.7°C 48.8°F9.3°C
Dew Point 45.7°F7.6°C 49.1°F9.5°C 45.2°F7.3°C 46.5°F8.1°C
Winds Calm Calm 11.0 mph -17.7 kmh - - 0.4 mph 0.6 kmh
Wind Gusts 6.0 mph9.7 kmh 13.0 mph20.9 kmh - -
Humidity 92% 92% 91% 92%
Pressure 29.54 in1000.3 mb 29.82 in1009.8 mb 29.53 in1000.0 mb -
Hour Temp Dew Point Humidity Winds Wind Gusts Pressure Precip Precip Rate Daily Precip Total
03:50 PM 47.9°F8.8°C 45.7°F7.6°C 92% Calm Calm 6.0 mph9.7 kmh 29.54 in1000.3 mb 0.04 in1.0 mm 0.00 in0.0 mm 1.53 in38.9 mm
03:40 PM 48.1°F8.9°C 45.9°F7.7°C 92% 4.0 mph S6.4 kmh S 7.0 mph11.3 kmh 29.53 in1000.0 mb 0.06 in1.5 mm 0.00 in0.0 mm 1.53 in38.9 mm
03:30 PM 49.4°F9.7°C 47.2°F8.4°C 92% Calm Calm 1.0 mph1.6 kmh 29.54 in1000.3 mb 0.28 in7.1 mm 0.00 in0.0 mm 1.53 in38.9 mm
03:20 PM 49.4°F9.7°C 47.2°F8.4°C 92% Calm Calm 1.0 mph1.6 kmh 29.57 in1001.4 mb 0.31 in7.9 mm 1.50 in38.1 mm 1.53 in38.9 mm
03:10 PM 49.4°F9.7°C 47.2°F8.4°C 92% Calm Calm 1.0 mph1.6 kmh 29.57 in1001.4 mb 0.06 in1.5 mm 0.00 in0.0 mm 1.28 in32.5 mm
03:00 PM 49.9°F9.9°C 47.7°F8.7°C 92% 11.0 mph N17.7 kmh N 13.0 mph20.9 kmh 29.58 in1001.7 mb 0.15 in3.8 mm 0.00 in0.0 mm 1.28 in32.5 mm
02:50 PM 50.6°F10.3°C 48.4°F9.1°C 92% Calm Calm 4.0 mph6.4 kmh 29.58 in1001.7 mb 0.17 in4.3 mm 0.00 in0.0 mm 1.28 in32.5 mm
02:40 PM 49.9°F9.9°C 47.7°F8.7°C 92% Calm Calm 4.0 mph6.4 kmh 29.58 in1001.7 mb 0.18 in4.6 mm 0.54 in13.7 mm 1.28 in32.5 mm
02:30 PM 51.2°F10.7°C 49.0°F9.4°C 92% 1.0 mph E1.6 kmh E 2.0 mph3.2 kmh 29.58 in1001.7 mb 0.09 in2.3 mm 0.18 in4.6 mm 1.19 in30.2 mm
02:20 PM 51.3°F10.7°C 49.1°F9.5°C 92% Calm Calm 1.0 mph1.6 kmh 29.58 in1001.7 mb 0.06 in1.5 mm 0.00 in0.0 mm 1.16 in29.5 mm
02:10 PM 51.2°F10.7°C 49.0°F9.4°C 92% Calm Calm 3.0 mph4.8 kmh 29.58 in1001.7 mb 0.09 in2.3 mm 0.18 in4.6 mm 1.16 in29.5 mm
02:00 PM 51.3°F10.7°C 49.1°F9.5°C 92% Calm Calm 1.0 mph1.6 kmh 29.58 in1001.7 mb 0.06 in1.5 mm 0.00 in0.0 mm 1.13 in28.7 mm
01:50 PM 51.1°F10.6°C 48.9°F9.4°C 92% Calm Calm 1.0 mph1.6 kmh 29.58 in1001.7 mb 0.06 in1.5 mm 0.00 in0.0 mm 1.13 in28.7 mm
01:40 PM 50.7°F10.4°C 48.5°F9.2°C 92% Calm Calm 3.0 mph4.8 kmh 29.57 in1001.4 mb 0.14 in3.6 mm 0.36 in9.1 mm 1.13 in28.7 mm
01:30 PM 50.8°F10.4°C 48.6°F9.2°C 92% Calm Calm -- 29.58 in1001.7 mb 0.08 in2.0 mm 0.00 in0.0 mm 1.07 in27.2 mm
01:20 PM 50.8°F10.4°C 48.6°F9.2°C 92% Calm Calm 3.0 mph4.8 kmh 29.57 in1001.4 mb 0.11 in2.8 mm 0.30 in7.6 mm 1.07 in27.2 mm
01:10 PM 51.0°F10.6°C 48.8°F9.3°C 92% Calm Calm 1.0 mph1.6 kmh 29.57 in1001.4 mb 0.06 in1.5 mm 0.36 in9.1 mm 1.02 in25.9 mm
01:00 PM 51.0°F10.6°C 48.8°F9.3°C 92% Calm Calm -- 29.57 in1001.4 mb 0.00 in0.0 mm 0.00 in0.0 mm 0.96 in24.4 mm
12:50 PM 50.9°F10.5°C 48.7°F9.3°C 92% Calm Calm 1.0 mph1.6 kmh 29.57 in1001.4 mb 0.00 in0.0 mm 0.00 in0.0 mm 0.96 in24.4 mm
12:40 PM 51.0°F10.6°C 48.8°F9.3°C 92% Calm Calm -- 29.57 in1001.4 mb 0.00 in0.0 mm 0.00 in0.0 mm 0.96 in24.4 mm
12:30 PM 50.9°F10.5°C 48.7°F9.3°C 92% Calm Calm 2.0 mph3.2 kmh 29.57 in1001.4 mb 0.00 in0.0 mm 0.00 in0.0 mm 0.96 in24.4 mm
12:20 PM 50.6°F10.3°C 48.4°F9.1°C 92% Calm Calm 1.0 mph1.6 kmh 29.58 in1001.7 mb 0.00 in0.0 mm 0.00 in0.0 mm 0.96 in24.4 mm
12:10 PM 50.6°F10.3°C 48.4°F9.1°C 92% Calm Calm 4.0 mph6.4 kmh 29.58 in1001.7 mb 0.00 in0.0 mm 0.00 in0.0 mm 0.96 in24.4 mm
12:00 PM 50.8°F10.4°C 48.6°F9.2°C 92% Calm Calm 1.0 mph1.6 kmh 29.58 in1001.7 mb 0.00 in0.0 mm 0.00 in0.0 mm 0.96 in24.4 mm
11:50 AM 51.0°F10.6°C 48.8°F9.3°C 92% 1.0 mph E1.6 kmh E 2.0 mph3.2 kmh 29.58 in1001.7 mb 0.00 in0.0 mm 0.00 in0.0 mm 0.96 in24.4 mm
11:40 AM 50.8°F10.4°C 48.6°F9.2°C 92% Calm Calm 2.0 mph3.2 kmh 29.58 in1001.7 mb 0.00 in0.0 mm 0.00 in0.0 mm 0.96 in24.4 mm
11:30 AM 50.1°F10.1°C 47.9°F8.8°C 92% Calm Calm 1.0 mph1.6 kmh 29.58 in1001.7 mb 0.00 in0.0 mm 0.00 in0.0 mm 0.96 in24.4 mm
11:20 AM 49.8°F9.9°C 47.6°F8.7°C 92% Calm Calm 2.0 mph3.2 kmh 29.58 in1001.7 mb 0.00 in0.0 mm 0.00 in0.0 mm 0.96 in24.4 mm
11:10 AM 49.5°F9.7°C 47.3°F8.5°C 92% 3.0 mph ENE4.8 kmh ENE 3.0 mph4.8 kmh 29.58 in1001.7 mb 0.00 in0.0 mm 0.00 in0.0 mm 0.96 in24.4 mm
11:00 AM 49.2°F9.6°C 47.0°F8.3°C 92% Calm Calm 2.0 mph3.2 kmh 29.59 in1002.0 mb 0.00 in0.0 mm 0.00 in0.0 mm 0.96 in24.4 mm
10:50 AM 49.0°F9.4°C 46.8°F8.2°C 92% Calm Calm 4.0 mph6.4 kmh 29.60 in1002.4 mb 0.00 in0.0 mm 0.00 in0.0 mm 0.96 in24.4 mm
10:40 AM 48.9°F9.4°C 46.7°F8.2°C 92% Calm Calm 1.0 mph1.6 kmh 29.60 in1002.4 mb 0.00 in0.0 mm 0.00 in0.0 mm 0.96 in24.4 mm
10:30 AM 48.9°F9.4°C 46.7°F8.2°C 92% Calm Calm 1.0 mph1.6 kmh 29.61 in1002.7 mb 0.03 in0.8 mm 0.00 in0.0 mm 0.96 in24.4 mm
10:20 AM 48.8°F9.3°C 46.6°F8.1°C 92% Calm Calm -- 29.61 in1002.7 mb 0.03 in0.8 mm 0.00 in0.0 mm 0.96 in24.4 mm
10:10 AM 48.8°F9.3°C 46.6°F8.1°C 92% Calm Calm 2.0 mph3.2 kmh 29.62 in1003.0 mb 0.05 in1.3 mm 0.00 in0.0 mm 0.96 in24.4 mm
10:00 AM 48.7°F9.3°C 46.5°F8.1°C 92% Calm Calm 1.0 mph1.6 kmh 29.62 in1003.0 mb 0.08 in2.0 mm 0.06 in1.5 mm 0.96 in24.4 mm
09:50 AM 48.6°F9.2°C 46.4°F8.0°C 92% Calm Calm -- 29.62 in1003.0 mb 0.03 in0.8 mm 0.00 in0.0 mm 0.91 in23.1 mm
09:40 AM 48.6°F9.2°C 46.4°F8.0°C 92% Calm Calm 4.0 mph6.4 kmh 29.62 in1003.0 mb 0.03 in0.8 mm 0.00 in0.0 mm 0.91 in23.1 mm
09:30 AM 48.6°F9.2°C 46.4°F8.0°C 92% Calm Calm -- 29.63 in1003.4 mb 0.08 in2.0 mm 0.12 in3.0 mm 0.91 in23.1 mm
09:20 AM 48.5°F9.2°C 46.3°F7.9°C 92% Calm Calm 1.0 mph1.6 kmh 29.64 in1003.7 mb 0.06 in1.5 mm 0.18 in4.6 mm 0.89 in22.6 mm
09:10 AM 48.5°F9.2°C 46.3°F7.9°C 92% Calm Calm 4.0 mph6.4 kmh 29.65 in1004.1 mb 0.03 in0.8 mm 0.00 in0.0 mm 0.86 in21.8 mm
09:00 AM 48.5°F9.2°C 46.3°F7.9°C 92% Calm Calm 2.0 mph3.2 kmh 29.65 in1004.1 mb 0.05 in1.3 mm 0.00 in0.0 mm 0.86 in21.8 mm
08:50 AM 48.6°F9.2°C 46.4°F8.0°C 92% Calm Calm 1.0 mph1.6 kmh 29.65 in1004.1 mb 0.06 in1.5 mm 0.12 in3.0 mm 0.86 in21.8 mm
08:40 AM 48.6°F9.2°C 46.4°F8.0°C 92% Calm Calm 1.0 mph1.6 kmh 29.66 in1004.4 mb 0.04 in1.0 mm 0.00 in0.0 mm 0.84 in21.3 mm
08:30 AM 48.6°F9.2°C 46.4°F8.0°C 92% Calm Calm 1.0 mph1.6 kmh 29.66 in1004.4 mb 0.04 in1.0 mm 0.00 in0.0 mm 0.84 in21.3 mm
08:20 AM 48.6°F9.2°C 46.4°F8.0°C 92% Calm Calm 3.0 mph4.8 kmh 29.66 in1004.4 mb 0.04 in1.0 mm 0.00 in0.0 mm 0.84 in21.3 mm
08:10 AM 48.6°F9.2°C 46.4°F8.0°C 92% Calm Calm 4.0 mph6.4 kmh 29.66 in1004.4 mb 0.04 in1.0 mm 0.00 in0.0 mm 0.84 in21.3 mm
08:00 AM 48.6°F9.2°C 46.4°F8.0°C 92% Calm Calm 4.0 mph6.4 kmh 29.67 in1004.7 mb 0.04 in1.0 mm 0.00 in0.0 mm 0.84 in21.3 mm
07:50 AM 48.4°F9.1°C 46.2°F7.9°C 92% Calm Calm 3.0 mph4.8 kmh 29.67 in1004.7 mb 0.04 in1.0 mm 0.00 in0.0 mm 0.84 in21.3 mm
07:40 AM 48.1°F8.9°C 45.9°F7.7°C 92% Calm Calm 1.0 mph1.6 kmh 29.67 in1004.7 mb 0.04 in1.0 mm 0.00 in0.0 mm 0.84 in21.3 mm
07:30 AM 47.9°F8.8°C 45.7°F7.6°C 92% Calm Calm 1.0 mph1.6 kmh 29.67 in1004.7 mb 0.13 in3.3 mm 0.42 in10.7 mm 0.84 in21.3 mm
07:20 AM 47.9°F8.8°C 45.7°F7.6°C 92% Calm Calm 2.0 mph3.2 kmh 29.68 in1005.1 mb 0.06 in1.5 mm 0.00 in0.0 mm 0.77 in19.6 mm
07:10 AM 47.7°F8.7°C 45.5°F7.5°C 92% Calm Calm 1.0 mph1.6 kmh 29.67 in1004.7 mb 0.06 in1.5 mm 0.00 in0.0 mm 0.77 in19.6 mm
07:00 AM 47.7°F8.7°C 45.5°F7.5°C 92% Calm Calm 1.0 mph1.6 kmh 29.68 in1005.1 mb 0.09 in2.3 mm 0.00 in0.0 mm 0.77 in19.6 mm
06:50 AM 47.7°F8.7°C 45.5°F7.5°C 92% Calm Calm 2.0 mph3.2 kmh 29.69 in1005.4 mb 0.09 in2.3 mm 0.00 in0.0 mm 0.77 in19.6 mm
06:40 AM 47.7°F8.7°C 45.5°F7.5°C 92% Calm Calm 2.0 mph3.2 kmh 29.69 in1005.4 mb 0.09 in2.3 mm 0.00 in0.0 mm 0.77 in19.6 mm
06:30 AM 47.7°F8.7°C 45.5°F7.5°C 92% Calm Calm 4.0 mph6.4 kmh 29.70 in1005.8 mb 0.10 in2.5 mm 0.00 in0.0 mm 0.77 in19.6 mm
06:20 AM 47.7°F8.7°C 45.5°F7.5°C 92% 2.0 mph S3.2 kmh S 3.0 mph4.8 kmh 29.70 in1005.8 mb 0.13 in3.3 mm 0.06 in1.5 mm 0.77 in19.6 mm
06:10 AM 47.7°F8.7°C 45.5°F7.5°C 92% Calm Calm 1.0 mph1.6 kmh 29.70 in1005.8 mb 0.12 in3.0 mm 0.36 in9.1 mm 0.76 in19.3 mm
06:00 AM 47.7°F8.7°C 45.5°F7.5°C 92% Calm Calm 3.0 mph4.8 kmh 29.70 in1005.8 mb 0.06 in1.5 mm 0.00 in0.0 mm 0.70 in17.8 mm
05:50 AM 47.7°F8.7°C 45.5°F7.5°C 92% 1.0 mph S1.6 kmh S 4.0 mph6.4 kmh 29.70 in1005.8 mb 0.28 in7.1 mm 1.50 in38.1 mm 0.70 in17.8 mm
05:40 AM 47.7°F8.7°C 45.5°F7.5°C 92% Calm Calm 4.0 mph6.4 kmh 29.71 in1006.1 mb 0.03 in0.8 mm 0.00 in0.0 mm 0.45 in11.4 mm
05:30 AM 47.7°F8.7°C 45.2°F7.3°C 91% Calm Calm 3.0 mph4.8 kmh 29.71 in1006.1 mb 0.06 in1.5 mm 0.00 in0.0 mm 0.45 in11.4 mm
05:20 AM 47.8°F8.8°C 45.3°F7.4°C 91% Calm Calm 4.0 mph6.4 kmh 29.71 in1006.1 mb 0.10 in2.5 mm 0.00 in0.0 mm 0.45 in11.4 mm
05:10 AM 47.8°F8.8°C 45.3°F7.4°C 91% Calm Calm 1.0 mph1.6 kmh 29.71 in1006.1 mb 0.13 in3.3 mm 0.42 in10.7 mm 0.45 in11.4 mm
05:00 AM 47.8°F8.8°C 45.3°F7.4°C 91% Calm Calm 3.0 mph4.8 kmh 29.72 in1006.4 mb 0.06 in1.5 mm 0.00 in0.0 mm 0.38 in9.7 mm
04:50 AM 47.8°F8.8°C 45.3°F7.4°C 91% Calm Calm 3.0 mph4.8 kmh 29.72 in1006.4 mb 0.09 in2.3 mm 0.18 in4.6 mm 0.38 in9.7 mm
04:40 AM 47.8°F8.8°C 45.3°F7.4°C 91% Calm Calm 5.0 mph8.0 kmh 29.72 in1006.4 mb 0.06 in1.5 mm 0.00 in0.0 mm 0.35 in8.9 mm
04:30 AM 47.8°F8.8°C 45.3°F7.4°C 91% 2.0 mph S3.2 kmh S 4.0 mph6.4 kmh 29.72 in1006.4 mb 0.07 in1.8 mm 0.18 in4.6 mm 0.35 in8.9 mm
04:20 AM 47.8°F8.8°C 45.3°F7.4°C 91% 1.0 mph SE1.6 kmh SE 1.0 mph1.6 kmh 29.73 in1006.8 mb 0.04 in1.0 mm 0.06 in1.5 mm 0.32 in8.1 mm
04:10 AM 47.8°F8.8°C 45.3°F7.4°C 91% 1.0 mph SSW1.6 kmh SSW 4.0 mph6.4 kmh 29.73 in1006.8 mb 0.03 in0.8 mm 0.00 in0.0 mm 0.31 in7.9 mm
04:00 AM 47.8°F8.8°C 45.3°F7.4°C 91% Calm Calm 3.0 mph4.8 kmh 29.73 in1006.8 mb 0.06 in1.5 mm 0.07 in1.8 mm 0.31 in7.9 mm
03:50 AM 47.9°F8.8°C 45.4°F7.4°C 91% Calm Calm 1.0 mph1.6 kmh 29.74 in1007.1 mb 0.00 in0.0 mm 0.00 in0.0 mm 0.25 in6.4 mm
03:40 AM 48.0°F8.9°C 45.8°F7.7°C 92% Calm Calm 2.0 mph3.2 kmh 29.74 in1007.1 mb 0.03 in0.8 mm 0.00 in0.0 mm 0.25 in6.4 mm
03:30 AM 48.0°F8.9°C 45.8°F7.7°C 92% Calm Calm 4.0 mph6.4 kmh 29.73 in1006.8 mb 0.03 in0.8 mm 0.00 in0.0 mm 0.25 in6.4 mm
03:20 AM 48.1°F8.9°C 45.9°F7.7°C 92% Calm Calm 5.0 mph8.0 kmh 29.74 in1007.1 mb 0.05 in1.3 mm 0.00 in0.0 mm 0.25 in6.4 mm
03:10 AM 48.1°F8.9°C 45.9°F7.7°C 92% Calm Calm 4.0 mph6.4 kmh 29.75 in1007.5 mb 0.05 in1.3 mm 0.00 in0.0 mm 0.25 in6.4 mm
03:00 AM 48.1°F8.9°C 45.9°F7.7°C 92% Calm Calm 4.0 mph6.4 kmh 29.75 in1007.5 mb 0.05 in1.3 mm 0.02 in0.5 mm 0.25 in6.4 mm
02:50 AM 48.1°F8.9°C 45.9°F7.7°C 92% 5.0 mph S8.0 kmh S 5.0 mph8.0 kmh 29.76 in1007.8 mb 0.03 in0.8 mm 0.18 in4.6 mm 0.23 in5.8 mm
02:40 AM 48.1°F8.9°C 45.9°F7.7°C 92% 1.0 mph SSE1.6 kmh SSE 5.0 mph8.0 kmh 29.76 in1007.8 mb 0.00 in0.0 mm 0.00 in0.0 mm 0.20 in5.1 mm
02:30 AM 48.1°F8.9°C 45.6°F7.6°C 91% 3.0 mph WSW4.8 kmh WSW 4.0 mph6.4 kmh 29.76 in1007.8 mb 0.00 in0.0 mm 0.00 in0.0 mm 0.20 in5.1 mm
02:20 AM 48.2°F9.0°C 45.7°F7.6°C 91% Calm Calm 2.0 mph3.2 kmh 29.76 in1007.8 mb 0.03 in0.8 mm 0.00 in0.0 mm 0.20 in5.1 mm
02:10 AM 48.2°F9.0°C 45.7°F7.6°C 91% 2.0 mph S3.2 kmh S 3.0 mph4.8 kmh 29.76 in1007.8 mb 0.03 in0.8 mm 0.00 in0.0 mm 0.20 in5.1 mm
02:00 AM 48.2°F9.0°C 45.7°F7.6°C 91% Calm Calm 3.0 mph4.8 kmh 29.77 in1008.1 mb 0.06 in1.5 mm 0.00 in0.0 mm 0.20 in5.1 mm
01:50 AM 48.2°F9.0°C 45.7°F7.6°C 91% Calm Calm 3.0 mph4.8 kmh 29.78 in1008.5 mb 0.09 in2.3 mm 0.00 in0.0 mm 0.20 in5.1 mm
01:40 AM 48.2°F9.0°C 45.7°F7.6°C 91% Calm Calm 3.0 mph4.8 kmh 29.78 in1008.5 mb 0.09 in2.3 mm 0.18 in4.6 mm 0.20 in5.1 mm
01:30 AM 48.2°F9.0°C 45.7°F7.6°C 91% Calm Calm 1.0 mph1.6 kmh 29.79 in1008.8 mb 0.06 in1.5 mm 0.12 in3.0 mm 0.17 in4.3 mm
01:20 AM 48.2°F9.0°C 45.7°F7.6°C 91% Calm Calm -- 29.80 in1009.1 mb 0.04 in1.0 mm 0.00 in0.0 mm 0.15 in3.8 mm
01:10 AM 48.2°F9.0°C 45.7°F7.6°C 91% Calm Calm 1.0 mph1.6 kmh 29.80 in1009.1 mb 0.06 in1.5 mm 0.36 in9.1 mm 0.15 in3.8 mm
01:00 AM 48.2°F9.0°C 45.7°F7.6°C 91% Calm Calm 1.0 mph1.6 kmh 29.79 in1008.8 mb 0.00 in0.0 mm 0.00 in0.0 mm 0.09 in2.3 mm
12:50 AM 48.1°F8.9°C 45.6°F7.6°C 91% Calm Calm 4.0 mph6.4 kmh 29.80 in1009.1 mb 0.04 in1.0 mm 0.00 in0.0 mm 0.09 in2.3 mm
12:40 AM 48.1°F8.9°C 45.6°F7.6°C 91% Calm Calm 4.0 mph6.4 kmh 29.80 in1009.1 mb 0.05 in1.3 mm 0.00 in0.0 mm 0.09 in2.3 mm
12:30 AM 48.1°F8.9°C 45.6°F7.6°C 91% Calm Calm 1.0 mph1.6 kmh 29.80 in1009.1 mb 0.06 in1.5 mm 0.00 in0.0 mm 0.09 in2.3 mm
12:20 AM 48.1°F8.9°C 45.6°F7.6°C 91% Calm Calm 4.0 mph6.4 kmh 29.81 in1009.5 mb 0.08 in2.0 mm 0.30 in7.6 mm 0.09 in2.3 mm
12:10 AM 48.0°F8.9°C 45.5°F7.5°C 91% 2.0 mph S3.2 kmh S 4.0 mph6.4 kmh 29.82 in1009.8 mb 0.03 in0.8 mm 0.00 in0.0 mm 0.04 in1.0 mm
12:00 AM 48.0°F8.9°C 45.5°F7.5°C 91% Calm Calm 3.0 mph4.8 kmh 29.82 in1009.8 mb 0.04 in1.0 mm 0.00 in0.0 mm 0.04 in1.0 mm